Arland, Wisconsin
Current Conditions -  °F | °C
As of 1:55 AM on Thursday 29 Jan 2015 (Local Time) from KUBE Reporting Station
Haze Haze  
Wind Chill: 20°   Ceiling: 300
Heat Index: 28°   Visibility: 2.5mi
Dew Point: 28°   Wind: 9mph
Humidity: 100%   Direction: 320°NW
Pressure: 29.84"   Gusts: NA
Location:  45.3064°N, 92.1345°W
Report Text: KUBE 290755Z AUTO 32008KT 2 1/2SM BR OVC003 M02/M02 A2984 RMK AO2
Loading
Personal Weather Stations






























Interactive Weather Map New forecast layout! Learn more

10-Day Weather Forecast

Advertisements
Track Severe Weather on mobile